Terminal Aerodrome Forecast
Issued by NWS

Current Version | Previous Version | Text Only | Print | Product List | Glossary On
Versions: 1 2 3 4 5 6 7 8 9 10 11 12
000
FTUS45 KGJT 202329
TAFMTJ
TAF
KMTJ 202329Z 2100/2124 24005KT P6SM SCT130 BKN200
     FM210200 16004KT P6SM SCT110 BKN200
     FM211600 33004KT P6SM FEW100 SCT200=

USA.gov is the U.S. government's official web portal to all federal, state and local government web resources and services.